sensor_id;sensor_type;location;lat;lon;timestamp;temperature;humidity
22940;DHT22;11636;52.086;5.090;2022-08-21T00:02:30;17.30;99.90
22940;DHT22;11636;52.086;5.090;2022-08-21T00:05:25;17.30;99.90
22940;DHT22;11636;52.086;5.090;2022-08-21T00:08:20;17.30;99.90
22940;DHT22;11636;52.086;5.090;2022-08-21T00:11:08;17.30;99.90
22940;DHT22;11636;52.086;5.090;2022-08-21T00:14:02;17.30;99.90
22940;DHT22;11636;52.086;5.090;2022-08-21T00:16:50;17.20;99.90
22940;DHT22;11636;52.086;5.090;2022-08-21T00:19:46;17.20;99.90
22940;DHT22;11636;52.086;5.090;2022-08-21T00:22:39;17.20;99.90
22940;DHT22;11636;52.086;5.090;2022-08-21T00:25:34;17.20;99.90
22940;DHT22;11636;52.086;5.090;2022-08-21T00:28:29;17.20;99.90
22940;DHT22;11636;52.086;5.090;2022-08-21T00:31:23;17.20;99.90
22940;DHT22;11636;52.086;5.090;2022-08-21T00:34:12;17.20;99.90
22940;DHT22;11636;52.086;5.090;2022-08-21T00:37:05;17.20;99.90
22940;DHT22;11636;52.086;5.090;2022-08-21T00:40:01;17.20;99.90
22940;DHT22;11636;52.086;5.090;2022-08-21T00:42:55;17.20;99.90
22940;DHT22;11636;52.086;5.090;2022-08-21T00:45:42;17.20;99.90
22940;DHT22;11636;52.086;5.090;2022-08-21T00:48:36;17.20;99.90
22940;DHT22;11636;52.086;5.090;2022-08-21T00:51:40;17.10;99.90
22940;DHT22;11636;52.086;5.090;2022-08-21T00:54:36;17.10;99.90
22940;DHT22;11636;52.086;5.090;2022-08-21T00:57:35;17.10;99.90
22940;DHT22;11636;52.086;5.090;2022-08-21T01:00:32;17.10;99.90
22940;DHT22;11636;52.086;5.090;2022-08-21T01:03:26;17.10;99.90
22940;DHT22;11636;52.086;5.090;2022-08-21T01:06:20;17.00;99.90
22940;DHT22;11636;52.086;5.090;2022-08-21T01:09:08;17.00;99.90
22940;DHT22;11636;52.086;5.090;2022-08-21T01:12:03;17.00;99.90
22940;DHT22;11636;52.086;5.090;2022-08-21T01:14:56;17.00;99.90
22940;DHT22;11636;52.086;5.090;2022-08-21T01:17:45;17.00;99.90
22940;DHT22;11636;52.086;5.090;2022-08-21T01:20:44;17.00;99.90
22940;DHT22;11636;52.086;5.090;2022-08-21T01:23:41;17.00;99.90
22940;DHT22;11636;52.086;5.090;2022-08-21T01:26:31;17.00;99.90
22940;DHT22;11636;52.086;5.090;2022-08-21T01:29:44;17.00;99.90
22940;DHT22;11636;52.086;5.090;2022-08-21T01:32:38;17.00;99.90
22940;DHT22;11636;52.086;5.090;2022-08-21T01:35:26;16.90;99.90
22940;DHT22;11636;52.086;5.090;2022-08-21T01:38:20;16.90;99.90
22940;DHT22;11636;52.086;5.090;2022-08-21T01:41:07;16.90;99.90
22940;DHT22;11636;52.086;5.090;2022-08-21T01:44:01;16.90;99.90
22940;DHT22;11636;52.086;5.090;2022-08-21T01:46:49;16.90;99.90
22940;DHT22;11636;52.086;5.090;2022-08-21T01:49:44;16.80;99.90
22940;DHT22;11636;52.086;5.090;2022-08-21T01:52:32;16.80;99.90
22940;DHT22;11636;52.086;5.090;2022-08-21T01:55:25;16.80;99.90
22940;DHT22;11636;52.086;5.090;2022-08-21T01:58:19;16.80;99.90
22940;DHT22;11636;52.086;5.090;2022-08-21T02:01:13;16.80;99.90
22940;DHT22;11636;52.086;5.090;2022-08-21T02:04:01;16.70;99.90
22940;DHT22;11636;52.086;5.090;2022-08-21T02:06:54;16.70;99.90
22940;DHT22;11636;52.086;5.090;2022-08-21T02:09:41;16.70;99.90
22940;DHT22;11636;52.086;5.090;2022-08-21T02:12:36;16.70;99.90
22940;DHT22;11636;52.086;5.090;2022-08-21T02:15:30;16.70;99.90
22940;DHT22;11636;52.086;5.090;2022-08-21T02:18:24;16.70;99.90
22940;DHT22;11636;52.086;5.090;2022-08-21T02:21:12;16.70;99.90
22940;DHT22;11636;52.086;5.090;2022-08-21T02:24:06;16.60;99.90
22940;DHT22;11636;52.086;5.090;2022-08-21T02:26:53;16.60;99.90
22940;DHT22;11636;52.086;5.090;2022-08-21T02:29:46;16.60;99.90
22940;DHT22;11636;52.086;5.090;2022-08-21T02:32:40;16.60;99.90
22940;DHT22;11636;52.086;5.090;2022-08-21T02:35:29;16.60;99.90
22940;DHT22;11636;52.086;5.090;2022-08-21T02:38:26;16.60;99.90
22940;DHT22;11636;52.086;5.090;2022-08-21T02:41:19;16.60;99.90
22940;DHT22;11636;52.086;5.090;2022-08-21T02:44:13;16.50;99.90
22940;DHT22;11636;52.086;5.090;2022-08-21T02:47:00;16.50;99.90
22940;DHT22;11636;52.086;5.090;2022-08-21T02:49:54;16.50;99.90
22940;DHT22;11636;52.086;5.090;2022-08-21T02:52:49;16.50;99.90
22940;DHT22;11636;52.086;5.090;2022-08-21T02:55:41;16.50;99.90
22940;DHT22;11636;52.086;5.090;2022-08-21T02:58:38;16.40;99.90
22940;DHT22;11636;52.086;5.090;2022-08-21T03:01:26;16.40;99.90
22940;DHT22;11636;52.086;5.090;2022-08-21T03:04:19;16.40;99.90
22940;DHT22;11636;52.086;5.090;2022-08-21T03:07:07;16.40;99.90
22940;DHT22;11636;52.086;5.090;2022-08-21T03:10:00;16.30;99.90
22940;DHT22;11636;52.086;5.090;2022-08-21T03:12:54;16.30;99.90
22940;DHT22;11636;52.086;5.090;2022-08-21T03:15:42;16.30;99.90
22940;DHT22;11636;52.086;5.090;2022-08-21T03:18:37;16.30;99.90
22940;DHT22;11636;52.086;5.090;2022-08-21T03:21:25;16.30;99.90
22940;DHT22;11636;52.086;5.090;2022-08-21T03:24:19;16.20;99.90
22940;DHT22;11636;52.086;5.090;2022-08-21T03:27:13;16.20;99.90
22940;DHT22;11636;52.086;5.090;2022-08-21T03:30:09;16.20;99.90
22940;DHT22;11636;52.086;5.090;2022-08-21T03:32:58;16.20;99.90
22940;DHT22;11636;52.086;5.090;2022-08-21T03:35:58;16.20;99.90
22940;DHT22;11636;52.086;5.090;2022-08-21T03:38:51;16.10;99.90
22940;DHT22;11636;52.086;5.090;2022-08-21T03:41:45;16.10;99.90
22940;DHT22;11636;52.086;5.090;2022-08-21T03:44:34;16.10;99.90
22940;DHT22;11636;52.086;5.090;2022-08-21T03:47:27;16.10;99.90
22940;DHT22;11636;52.086;5.090;2022-08-21T03:50:15;16.10;99.90
22940;DHT22;11636;52.086;5.090;2022-08-21T03:53:12;16.00;99.90
22940;DHT22;11636;52.086;5.090;2022-08-21T03:56:03;16.10;99.90
22940;DHT22;11636;52.086;5.090;2022-08-21T03:58:57;16.00;99.90
22940;DHT22;11636;52.086;5.090;2022-08-21T04:01:53;16.00;99.90
22940;DHT22;11636;52.086;5.090;2022-08-21T04:04:46;16.00;99.90
22940;DHT22;11636;52.086;5.090;2022-08-21T04:07:47;15.90;99.90
22940;DHT22;11636;52.086;5.090;2022-08-21T04:10:37;16.00;99.90
22940;DHT22;11636;52.086;5.090;2022-08-21T04:13:31;16.00;99.90
22940;DHT22;11636;52.086;5.090;2022-08-21T04:16:18;15.90;99.90
22940;DHT22;11636;52.086;5.090;2022-08-21T04:19:13;15.90;99.90
22940;DHT22;11636;52.086;5.090;2022-08-21T04:22:00;15.90;99.90
22940;DHT22;11636;52.086;5.090;2022-08-21T04:24:53;15.90;99.90
22940;DHT22;11636;52.086;5.090;2022-08-21T04:27:41;15.90;99.90
22940;DHT22;11636;52.086;5.090;2022-08-21T04:30:35;15.90;99.90
22940;DHT22;11636;52.086;5.090;2022-08-21T04:33:29;15.90;99.90
22940;DHT22;11636;52.086;5.090;2022-08-21T04:36:23;15.90;99.90
22940;DHT22;11636;52.086;5.090;2022-08-21T04:39:11;15.90;99.90
22940;DHT22;11636;52.086;5.090;2022-08-21T04:42:06;15.90;99.90
22940;DHT22;11636;52.086;5.090;2022-08-21T04:44:54;15.90;99.90
22940;DHT22;11636;52.086;5.090;2022-08-21T04:47:50;15.90;99.90
22940;DHT22;11636;52.086;5.090;2022-08-21T04:50:46;15.80;99.90
22940;DHT22;11636;52.086;5.090;2022-08-21T04:53:42;15.80;99.90
22940;DHT22;11636;52.086;5.090;2022-08-21T04:56:34;15.80;99.90
22940;DHT22;11636;52.086;5.090;2022-08-21T04:59:33;15.90;99.90
22940;DHT22;11636;52.086;5.090;2022-08-21T05:02:28;15.80;99.90
22940;DHT22;11636;52.086;5.090;2022-08-21T05:05:19;15.80;99.90
22940;DHT22;11636;52.086;5.090;2022-08-21T05:08:17;15.80;99.90
22940;DHT22;11636;52.086;5.090;2022-08-21T05:11:12;15.80;99.90
22940;DHT22;11636;52.086;5.090;2022-08-21T05:14:00;15.90;99.90
22940;DHT22;11636;52.086;5.090;2022-08-21T05:16:53;15.80;99.90
22940;DHT22;11636;52.086;5.090;2022-08-21T05:19:41;15.90;99.90
22940;DHT22;11636;52.086;5.090;2022-08-21T05:22:35;15.90;99.90
22940;DHT22;11636;52.086;5.090;2022-08-21T05:25:22;15.90;99.90
22940;DHT22;11636;52.086;5.090;2022-08-21T05:28:22;15.90;99.90
22940;DHT22;11636;52.086;5.090;2022-08-21T05:31:17;15.90;99.90
22940;DHT22;11636;52.086;5.090;2022-08-21T05:34:21;15.90;99.90
22940;DHT22;11636;52.086;5.090;2022-08-21T05:37:29;16.00;99.90
22940;DHT22;11636;52.086;5.090;2022-08-21T05:40:23;16.00;99.90
22940;DHT22;11636;52.086;5.090;2022-08-21T05:43:10;16.00;99.90
22940;DHT22;11636;52.086;5.090;2022-08-21T05:46:04;16.00;99.90
22940;DHT22;11636;52.086;5.090;2022-08-21T05:48:52;16.00;99.90
22940;DHT22;11636;52.086;5.090;2022-08-21T05:51:46;16.00;99.90
22940;DHT22;11636;52.086;5.090;2022-08-21T05:54:33;16.10;99.90
22940;DHT22;11636;52.086;5.090;2022-08-21T05:57:27;16.10;99.90
22940;DHT22;11636;52.086;5.090;2022-08-21T06:00:27;16.10;99.90
22940;DHT22;11636;52.086;5.090;2022-08-21T06:03:27;16.10;99.90
22940;DHT22;11636;52.086;5.090;2022-08-21T06:06:22;16.10;99.90
22940;DHT22;11636;52.086;5.090;2022-08-21T06:09:09;16.20;99.90
22940;DHT22;11636;52.086;5.090;2022-08-21T06:12:08;16.10;99.90
22940;DHT22;11636;52.086;5.090;2022-08-21T06:14:55;16.20;99.90
22940;DHT22;11636;52.086;5.090;2022-08-21T06:17:49;16.20;99.90
22940;DHT22;11636;52.086;5.090;2022-08-21T06:20:43;16.20;99.90
22940;DHT22;11636;52.086;5.090;2022-08-21T06:23:31;16.20;99.90
22940;DHT22;11636;52.086;5.090;2022-08-21T06:26:26;16.20;99.90
22940;DHT22;11636;52.086;5.090;2022-08-21T06:29:21;16.30;99.90
22940;DHT22;11636;52.086;5.090;2022-08-21T06:32:29;16.30;99.90
22940;DHT22;11636;52.086;5.090;2022-08-21T06:35:23;16.40;99.90
22940;DHT22;11636;52.086;5.090;2022-08-21T06:38:18;16.40;99.90
22940;DHT22;11636;52.086;5.090;2022-08-21T06:41:13;16.40;99.90
22940;DHT22;11636;52.086;5.090;2022-08-21T06:44:12;16.40;99.90
22940;DHT22;11636;52.086;5.090;2022-08-21T06:47:02;16.50;99.90
22940;DHT22;11636;52.086;5.090;2022-08-21T06:49:56;16.50;99.90
22940;DHT22;11636;52.086;5.090;2022-08-21T06:52:43;16.50;99.90
22940;DHT22;11636;52.086;5.090;2022-08-21T06:55:39;16.60;99.90
22940;DHT22;11636;52.086;5.090;2022-08-21T06:58:26;16.60;99.90
22940;DHT22;11636;52.086;5.090;2022-08-21T07:01:24;16.70;99.90
22940;DHT22;11636;52.086;5.090;2022-08-21T07:04:12;16.70;99.90
22940;DHT22;11636;52.086;5.090;2022-08-21T07:07:06;16.70;99.90
22940;DHT22;11636;52.086;5.090;2022-08-21T07:09:53;16.80;99.90
22940;DHT22;11636;52.086;5.090;2022-08-21T07:12:47;16.90;99.90
22940;DHT22;11636;52.086;5.090;2022-08-21T07:15:34;17.00;99.90
22940;DHT22;11636;52.086;5.090;2022-08-21T07:18:28;17.00;99.90
22940;DHT22;11636;52.086;5.090;2022-08-21T07:21:15;17.10;99.90
22940;DHT22;11636;52.086;5.090;2022-08-21T07:24:12;17.10;99.90
22940;DHT22;11636;52.086;5.090;2022-08-21T07:26:59;17.20;99.90
22940;DHT22;11636;52.086;5.090;2022-08-21T07:29:56;17.30;99.90
22940;DHT22;11636;52.086;5.090;2022-08-21T07:32:51;17.30;99.90
22940;DHT22;11636;52.086;5.090;2022-08-21T07:35:38;17.40;99.90
22940;DHT22;11636;52.086;5.090;2022-08-21T07:38:32;17.50;99.90
22940;DHT22;11636;52.086;5.090;2022-08-21T07:41:25;17.60;99.90
22940;DHT22;11636;52.086;5.090;2022-08-21T07:44:19;17.60;99.90
22940;DHT22;11636;52.086;5.090;2022-08-21T07:47:06;17.70;99.90
22940;DHT22;11636;52.086;5.090;2022-08-21T07:50:00;17.70;99.90
22940;DHT22;11636;52.086;5.090;2022-08-21T07:52:47;17.70;99.90
22940;DHT22;11636;52.086;5.090;2022-08-21T07:55:41;17.80;99.90
22940;DHT22;11636;52.086;5.090;2022-08-21T07:58:28;18.00;99.90
22940;DHT22;11636;52.086;5.090;2022-08-21T08:01:22;18.10;99.90
22940;DHT22;11636;52.086;5.090;2022-08-21T08:04:16;18.30;99.90
22940;DHT22;11636;52.086;5.090;2022-08-21T08:07:03;18.40;99.90
22940;DHT22;11636;52.086;5.090;2022-08-21T08:09:57;18.40;99.90
22940;DHT22;11636;52.086;5.090;2022-08-21T08:12:52;18.50;99.90
22940;DHT22;11636;52.086;5.090;2022-08-21T08:15:47;18.70;99.90
22940;DHT22;11636;52.086;5.090;2022-08-21T08:18:41;18.90;99.90
22940;DHT22;11636;52.086;5.090;2022-08-21T08:21:35;19.00;99.90
22940;DHT22;11636;52.086;5.090;2022-08-21T08:24:24;19.10;99.90
22940;DHT22;11636;52.086;5.090;2022-08-21T08:27:18;19.10;99.90
22940;DHT22;11636;52.086;5.090;2022-08-21T08:30:09;19.20;99.90
22940;DHT22;11636;52.086;5.090;2022-08-21T08:33:04;19.40;99.90
22940;DHT22;11636;52.086;5.090;2022-08-21T08:35:58;19.50;99.90
22940;DHT22;11636;52.086;5.090;2022-08-21T08:38:54;19.60;99.90
22940;DHT22;11636;52.086;5.090;2022-08-21T08:41:41;19.70;99.90
22940;DHT22;11636;52.086;5.090;2022-08-21T08:44:45;19.80;99.90
22940;DHT22;11636;52.086;5.090;2022-08-21T08:47:37;19.80;99.90
22940;DHT22;11636;52.086;5.090;2022-08-21T08:53:55;20.10;99.90
22940;DHT22;11636;52.086;5.090;2022-08-21T08:56:44;20.20;99.90
22940;DHT22;11636;52.086;5.090;2022-08-21T08:59:51;20.20;99.90
22940;DHT22;11636;52.086;5.090;2022-08-21T09:02:46;20.30;99.90
22940;DHT22;11636;52.086;5.090;2022-08-21T09:05:48;20.40;99.90
22940;DHT22;11636;52.086;5.090;2022-08-21T09:09:25;20.50;99.90
22940;DHT22;11636;52.086;5.090;2022-08-21T09:15:33;21.10;99.90
22940;DHT22;11636;52.086;5.090;2022-08-21T09:18:52;21.20;99.90
22940;DHT22;11636;52.086;5.090;2022-08-21T09:22:19;21.00;99.90
22940;DHT22;11636;52.086;5.090;2022-08-21T09:25:24;21.00;99.90
22940;DHT22;11636;52.086;5.090;2022-08-21T09:28:12;21.00;99.90
22940;DHT22;11636;52.086;5.090;2022-08-21T09:31:16;21.20;99.90
22940;DHT22;11636;52.086;5.090;2022-08-21T09:34:11;21.50;99.90
22940;DHT22;11636;52.086;5.090;2022-08-21T09:37:17;21.90;99.90
22940;DHT22;11636;52.086;5.090;2022-08-21T09:40:19;22.10;99.90
22940;DHT22;11636;52.086;5.090;2022-08-21T09:43:19;21.90;99.90
22940;DHT22;11636;52.086;5.090;2022-08-21T09:46:21;22.00;99.90
22940;DHT22;11636;52.086;5.090;2022-08-21T09:49:34;21.90;99.90
22940;DHT22;11636;52.086;5.090;2022-08-21T09:52:24;21.80;99.90
22940;DHT22;11636;52.086;5.090;2022-08-21T09:55:48;21.60;99.90
22940;DHT22;11636;52.086;5.090;2022-08-21T09:58:48;21.50;99.90
22940;DHT22;11636;52.086;5.090;2022-08-21T10:01:46;21.30;99.90
22940;DHT22;11636;52.086;5.090;2022-08-21T10:04:35;21.40;99.90
22940;DHT22;11636;52.086;5.090;2022-08-21T10:07:31;21.60;99.90
22940;DHT22;11636;52.086;5.090;2022-08-21T10:10:32;22.10;99.90
22940;DHT22;11636;52.086;5.090;2022-08-21T10:16:51;23.00;99.90
22940;DHT22;11636;52.086;5.090;2022-08-21T10:20:05;23.00;99.90
22940;DHT22;11636;52.086;5.090;2022-08-21T10:26:17;22.50;99.90
22940;DHT22;11636;52.086;5.090;2022-08-21T10:29:24;22.50;99.90
22940;DHT22;11636;52.086;5.090;2022-08-21T10:35:33;22.90;99.90
22940;DHT22;11636;52.086;5.090;2022-08-21T10:48:07;24.20;99.90
22940;DHT22;11636;52.086;5.090;2022-08-21T10:51:10;24.40;99.90
22940;DHT22;11636;52.086;5.090;2022-08-21T11:00:46;24.10;99.80
22940;DHT22;11636;52.086;5.090;2022-08-21T11:03:45;24.10;99.90
22940;DHT22;11636;52.086;5.090;2022-08-21T11:06:46;23.90;99.70
22940;DHT22;11636;52.086;5.090;2022-08-21T11:09:40;23.80;99.70
22940;DHT22;11636;52.086;5.090;2022-08-21T11:12:44;23.70;99.90
22940;DHT22;11636;52.086;5.090;2022-08-21T11:15:47;23.50;99.90
22940;DHT22;11636;52.086;5.090;2022-08-21T11:18:55;23.40;99.90
22940;DHT22;11636;52.086;5.090;2022-08-21T11:22:06;23.40;99.90
22940;DHT22;11636;52.086;5.090;2022-08-21T11:25:27;23.10;99.90
22940;DHT22;11636;52.086;5.090;2022-08-21T11:28:28;23.00;99.90
22940;DHT22;11636;52.086;5.090;2022-08-21T11:34:44;23.30;99.90
22940;DHT22;11636;52.086;5.090;2022-08-21T11:37:45;23.50;99.90
22940;DHT22;11636;52.086;5.090;2022-08-21T11:44:10;23.80;99.90
22940;DHT22;11636;52.086;5.090;2022-08-21T11:50:20;23.80;99.90
22940;DHT22;11636;52.086;5.090;2022-08-21T11:53:26;23.70;99.90
22940;DHT22;11636;52.086;5.090;2022-08-21T11:56:35;23.80;99.90
22940;DHT22;11636;52.086;5.090;2022-08-21T11:59:43;24.10;99.90
22940;DHT22;11636;52.086;5.090;2022-08-21T12:02:35;24.30;99.30
22940;DHT22;11636;52.086;5.090;2022-08-21T12:05:36;24.40;98.50
22940;DHT22;11636;52.086;5.090;2022-08-21T12:08:33;24.60;97.80
22940;DHT22;11636;52.086;5.090;2022-08-21T12:11:28;24.30;98.00
22940;DHT22;11636;52.086;5.090;2022-08-21T12:14:18;24.10;97.50
22940;DHT22;11636;52.086;5.090;2022-08-21T12:17:24;24.30;98.40
22940;DHT22;11636;52.086;5.090;2022-08-21T12:23:26;24.50;97.10
22940;DHT22;11636;52.086;5.090;2022-08-21T12:26:34;24.50;96.30
22940;DHT22;11636;52.086;5.090;2022-08-21T12:29:33;24.50;97.40
22940;DHT22;11636;52.086;5.090;2022-08-21T12:32:43;24.60;97.30
22940;DHT22;11636;52.086;5.090;2022-08-21T12:35:39;24.10;97.90
22940;DHT22;11636;52.086;5.090;2022-08-21T12:38:49;23.70;98.80
22940;DHT22;11636;52.086;5.090;2022-08-21T12:41:48;23.80;99.40
22940;DHT22;11636;52.086;5.090;2022-08-21T12:44:56;23.90;99.50
22940;DHT22;11636;52.086;5.090;2022-08-21T12:48:06;23.80;99.10
22940;DHT22;11636;52.086;5.090;2022-08-21T12:51:16;23.90;99.10
22940;DHT22;11636;52.086;5.090;2022-08-21T12:54:09;24.10;98.70
22940;DHT22;11636;52.086;5.090;2022-08-21T12:57:05;24.20;98.30
22940;DHT22;11636;52.086;5.090;2022-08-21T12:59:59;24.40;97.80
22940;DHT22;11636;52.086;5.090;2022-08-21T13:02:54;24.50;97.20
22940;DHT22;11636;52.086;5.090;2022-08-21T13:05:42;24.40;97.20
22940;DHT22;11636;52.086;5.090;2022-08-21T13:08:36;24.50;96.80
22940;DHT22;11636;52.086;5.090;2022-08-21T13:11:33;24.50;96.30
22940;DHT22;11636;52.086;5.090;2022-08-21T13:14:38;24.20;96.90
22940;DHT22;11636;52.086;5.090;2022-08-21T13:17:36;24.10;97.20
22940;DHT22;11636;52.086;5.090;2022-08-21T13:20:29;24.30;97.50
22940;DHT22;11636;52.086;5.090;2022-08-21T13:23:29;24.30;96.30
22940;DHT22;11636;52.086;5.090;2022-08-21T13:26:23;24.30;96.80
22940;DHT22;11636;52.086;5.090;2022-08-21T13:29:20;24.20;97.30
22940;DHT22;11636;52.086;5.090;2022-08-21T13:32:22;24.20;96.90
22940;DHT22;11636;52.086;5.090;2022-08-21T13:35:46;24.20;96.80
22940;DHT22;11636;52.086;5.090;2022-08-21T13:38:39;24.30;97.10
22940;DHT22;11636;52.086;5.090;2022-08-21T13:41:35;24.00;96.10
22940;DHT22;11636;52.086;5.090;2022-08-21T13:47:18;23.80;96.40
22940;DHT22;11636;52.086;5.090;2022-08-21T13:50:13;23.80;96.50
22940;DHT22;11636;52.086;5.090;2022-08-21T13:56:33;23.90;96.40
22940;DHT22;11636;52.086;5.090;2022-08-21T13:59:35;24.00;96.50
22940;DHT22;11636;52.086;5.090;2022-08-21T14:02:28;24.30;95.20
22940;DHT22;11636;52.086;5.090;2022-08-21T14:05:27;24.50;94.90
22940;DHT22;11636;52.086;5.090;2022-08-21T14:08:37;25.00;93.80
22940;DHT22;11636;52.086;5.090;2022-08-21T14:11:34;25.30;90.90
22940;DHT22;11636;52.086;5.090;2022-08-21T14:14:25;25.40;90.60
22940;DHT22;11636;52.086;5.090;2022-08-21T14:17:33;25.30;90.70
22940;DHT22;11636;52.086;5.090;2022-08-21T14:20:36;25.30;90.60
22940;DHT22;11636;52.086;5.090;2022-08-21T14:23:25;25.10;89.30
22940;DHT22;11636;52.086;5.090;2022-08-21T14:26:18;24.80;90.00
22940;DHT22;11636;52.086;5.090;2022-08-21T14:29:08;24.50;91.00
22940;DHT22;11636;52.086;5.090;2022-08-21T14:32:17;24.20;92.20
22940;DHT22;11636;52.086;5.090;2022-08-21T14:35:11;23.90;93.20
22940;DHT22;11636;52.086;5.090;2022-08-21T14:38:17;23.80;93.50
22940;DHT22;11636;52.086;5.090;2022-08-21T14:41:23;23.70;92.50
22940;DHT22;11636;52.086;5.090;2022-08-21T14:44:18;23.60;92.40
22940;DHT22;11636;52.086;5.090;2022-08-21T14:47:12;23.60;92.40
22940;DHT22;11636;52.086;5.090;2022-08-21T14:50:00;23.70;92.40
22940;DHT22;11636;52.086;5.090;2022-08-21T14:52:54;23.70;92.20
22940;DHT22;11636;52.086;5.090;2022-08-21T14:55:47;23.70;92.10
22940;DHT22;11636;52.086;5.090;2022-08-21T14:58:55;23.70;92.30
22940;DHT22;11636;52.086;5.090;2022-08-21T15:01:52;23.60;92.70
22940;DHT22;11636;52.086;5.090;2022-08-21T15:04:39;23.50;92.40
22940;DHT22;11636;52.086;5.090;2022-08-21T15:07:35;23.40;92.90
22940;DHT22;11636;52.086;5.090;2022-08-21T15:10:29;23.30;93.50
22940;DHT22;11636;52.086;5.090;2022-08-21T15:13:57;23.20;93.70
22940;DHT22;11636;52.086;5.090;2022-08-21T15:16:51;23.30;93.60
22940;DHT22;11636;52.086;5.090;2022-08-21T15:19:39;23.30;93.50
22940;DHT22;11636;52.086;5.090;2022-08-21T15:22:35;23.20;93.50
22940;DHT22;11636;52.086;5.090;2022-08-21T15:25:23;23.00;93.80
22940;DHT22;11636;52.086;5.090;2022-08-21T15:28:17;23.00;94.30
22940;DHT22;11636;52.086;5.090;2022-08-21T15:31:04;22.90;94.50
22940;DHT22;11636;52.086;5.090;2022-08-21T15:33:59;23.00;94.40
22940;DHT22;11636;52.086;5.090;2022-08-21T15:36:54;23.00;94.50
22940;DHT22;11636;52.086;5.090;2022-08-21T15:39:49;22.90;94.20
22940;DHT22;11636;52.086;5.090;2022-08-21T15:42:43;22.90;94.60
22940;DHT22;11636;52.086;5.090;2022-08-21T15:45:37;23.00;94.30
22940;DHT22;11636;52.086;5.090;2022-08-21T15:48:25;23.10;94.30
22940;DHT22;11636;52.086;5.090;2022-08-21T15:51:19;23.30;94.10
22940;DHT22;11636;52.086;5.090;2022-08-21T15:54:13;23.30;95.40
22940;DHT22;11636;52.086;5.090;2022-08-21T15:57:00;23.30;95.90
22940;DHT22;11636;52.086;5.090;2022-08-21T16:00:00;23.30;96.20
22940;DHT22;11636;52.086;5.090;2022-08-21T16:03:05;23.20;96.60
22940;DHT22;11636;52.086;5.090;2022-08-21T16:06:00;23.20;96.50
22940;DHT22;11636;52.086;5.090;2022-08-21T16:08:54;23.20;96.10
22940;DHT22;11636;52.086;5.090;2022-08-21T16:11:48;23.20;96.40
22940;DHT22;11636;52.086;5.090;2022-08-21T16:14:42;23.20;96.30
22940;DHT22;11636;52.086;5.090;2022-08-21T16:17:37;23.20;95.90
22940;DHT22;11636;52.086;5.090;2022-08-21T16:20:28;23.30;95.90
22940;DHT22;11636;52.086;5.090;2022-08-21T16:23:22;23.30;95.80
22940;DHT22;11636;52.086;5.090;2022-08-21T16:26:11;23.30;95.80
22940;DHT22;11636;52.086;5.090;2022-08-21T16:29:06;23.30;95.90
22940;DHT22;11636;52.086;5.090;2022-08-21T16:31:54;23.30;95.90
22940;DHT22;11636;52.086;5.090;2022-08-21T16:34:48;23.30;95.90
22940;DHT22;11636;52.086;5.090;2022-08-21T16:37:35;23.30;95.70
22940;DHT22;11636;52.086;5.090;2022-08-21T16:40:30;23.20;95.50
22940;DHT22;11636;52.086;5.090;2022-08-21T16:43:27;23.10;95.70
22940;DHT22;11636;52.086;5.090;2022-08-21T16:46:21;23.00;96.20
22940;DHT22;11636;52.086;5.090;2022-08-21T16:49:15;23.00;96.50
22940;DHT22;11636;52.086;5.090;2022-08-21T16:52:02;22.80;96.50
22940;DHT22;11636;52.086;5.090;2022-08-21T16:54:56;22.60;96.80
22940;DHT22;11636;52.086;5.090;2022-08-21T16:57:44;22.40;97.20
22940;DHT22;11636;52.086;5.090;2022-08-21T17:00:38;22.30;97.50
22940;DHT22;11636;52.086;5.090;2022-08-21T17:03:29;22.20;97.70
22940;DHT22;11636;52.086;5.090;2022-08-21T17:06:25;22.10;97.90
22940;DHT22;11636;52.086;5.090;2022-08-21T17:09:15;22.00;97.90
22940;DHT22;11636;52.086;5.090;2022-08-21T17:12:09;22.00;97.90
22940;DHT22;11636;52.086;5.090;2022-08-21T17:15:03;22.00;98.30
22940;DHT22;11636;52.086;5.090;2022-08-21T17:17:58;21.90;98.70
22940;DHT22;11636;52.086;5.090;2022-08-21T17:20:47;21.90;98.60
22940;DHT22;11636;52.086;5.090;2022-08-21T17:23:41;21.80;98.80
22940;DHT22;11636;52.086;5.090;2022-08-21T17:26:36;21.80;98.90
22940;DHT22;11636;52.086;5.090;2022-08-21T17:29:36;21.70;98.90
22940;DHT22;11636;52.086;5.090;2022-08-21T17:32:24;21.70;99.00
22940;DHT22;11636;52.086;5.090;2022-08-21T17:35:18;21.70;99.20
22940;DHT22;11636;52.086;5.090;2022-08-21T17:38:06;21.60;99.00
22940;DHT22;11636;52.086;5.090;2022-08-21T17:41:01;21.60;99.30
22940;DHT22;11636;52.086;5.090;2022-08-21T17:43:55;21.60;99.50
22940;DHT22;11636;52.086;5.090;2022-08-21T17:46:49;21.60;99.60
22940;DHT22;11636;52.086;5.090;2022-08-21T17:49:36;21.50;99.90
22940;DHT22;11636;52.086;5.090;2022-08-21T17:52:30;21.50;99.90
22940;DHT22;11636;52.086;5.090;2022-08-21T17:55:24;21.50;99.90
22940;DHT22;11636;52.086;5.090;2022-08-21T17:58:20;21.40;99.90
22940;DHT22;11636;52.086;5.090;2022-08-21T18:01:07;21.30;99.90
22940;DHT22;11636;52.086;5.090;2022-08-21T18:04:03;21.30;99.90
22940;DHT22;11636;52.086;5.090;2022-08-21T18:06:57;21.30;99.90
22940;DHT22;11636;52.086;5.090;2022-08-21T18:09:44;21.20;99.90
22940;DHT22;11636;52.086;5.090;2022-08-21T18:12:41;21.20;99.90
22940;DHT22;11636;52.086;5.090;2022-08-21T18:15:28;21.20;99.90
22940;DHT22;11636;52.086;5.090;2022-08-21T18:18:23;21.20;99.90
22940;DHT22;11636;52.086;5.090;2022-08-21T18:21:18;21.10;99.90
22940;DHT22;11636;52.086;5.090;2022-08-21T18:24:05;21.00;99.90
22940;DHT22;11636;52.086;5.090;2022-08-21T18:27:01;21.00;99.90
22940;DHT22;11636;52.086;5.090;2022-08-21T18:29:56;20.90;99.90
22940;DHT22;11636;52.086;5.090;2022-08-21T18:32:45;20.80;99.90
22940;DHT22;11636;52.086;5.090;2022-08-21T18:35:45;20.70;99.90
22940;DHT22;11636;52.086;5.090;2022-08-21T18:38:40;20.70;99.90
22940;DHT22;11636;52.086;5.090;2022-08-21T18:41:28;20.70;99.90
22940;DHT22;11636;52.086;5.090;2022-08-21T18:44:23;20.60;99.90
22940;DHT22;11636;52.086;5.090;2022-08-21T18:47:22;20.50;99.90
22940;DHT22;11636;52.086;5.090;2022-08-21T18:50:19;20.50;99.90
22940;DHT22;11636;52.086;5.090;2022-08-21T18:53:12;20.40;99.90
22940;DHT22;11636;52.086;5.090;2022-08-21T18:56:13;20.40;99.90
22940;DHT22;11636;52.086;5.090;2022-08-21T18:59:20;20.40;99.90
22940;DHT22;11636;52.086;5.090;2022-08-21T19:02:16;20.30;99.90
22940;DHT22;11636;52.086;5.090;2022-08-21T19:05:05;20.30;99.90
22940;DHT22;11636;52.086;5.090;2022-08-21T19:07:59;20.30;99.90
22940;DHT22;11636;52.086;5.090;2022-08-21T19:10:48;20.30;99.90
22940;DHT22;11636;52.086;5.090;2022-08-21T19:13:43;20.30;99.90
22940;DHT22;11636;52.086;5.090;2022-08-21T19:16:39;20.30;99.90
22940;DHT22;11636;52.086;5.090;2022-08-21T19:19:33;20.20;99.90